Trois-Rivières Airport

Airport
ICAO code: 
CYRQ
IATA Code: 
YRQ
Summary
ICAO Region: 
NAM
Territory: 
Location: 
Trois-Rivières, Quebec
Serving: 
Trois-Rivières
Elevation: 
199 ft
Coordinates: 
Aerial View: 
46° 21' 6.012" N, 72° 40' 50.016" W
Metar
Observation
CYRQ 270000Z AUTO 22002KT 9SM CLR M26/M28 A3046 RMK SLP327
Station
Trois-Rivières Airport
Date/Time
2022-01-27 00:00:00
Wind direction
220°
Wind speed
02 kts
Lowest cloud amount
n/a
Temperature
-26°C
Dew point
-28°C
Humidity
83%
Weather condition
n/a

Trois-Rivières Airport is located near the city of Trois-Rivières, Quebec, Canada.

Climatology

Humid continental climate (Köppen climate classification Dfb)

Runways

Designator Length Width Surface Rops
5/23 1829 46 ASP No/No
Airport map: 
Aerial View: 

SKYbrary Partners:

Safety knowledge contributed by: